EDT,Max TemperatureF,Mean TemperatureF,Min TemperatureF,Max Dew PointF,MeanDew PointF,Min DewpointF,Max Humidity, Mean Humidity, Min Humidity, Max Sea Level PressureIn, Mean Sea Level PressureIn, Min Sea Level PressureIn, Max VisibilityMiles, Mean VisibilityMiles, Min VisibilityMiles, Max Wind SpeedMPH, Mean Wind SpeedMPH, Max Gust SpeedMPH,PrecipitationIn, CloudCover, Events, WindDirDegrees
2012-10-1,69,56,42,57,50,43,100,86,46,29.94,29.90,29.81,10,8,1,13,1,,0.00,1,Rain,116
2012-10-2,82,70,57,72,65,57,100,88,58,29.94,29.85,29.81,10,9,2,10,1,,0.39,3,Rain,150
2012-10-3,71,66,62,66,63,61,100,88,69,30.20,30.11,29.94,10,10,7,14,2,26,0.00,4,,243
2012-10-4,71,63,55,63,57,48,100,80,46,30.28,30.23,30.19,10,9,3,14,2,23,0.00,3,,253
2012-10-5,73,62,51,57,54,52,100,78,47,30.23,30.14,29.98,10,10,9,10,1,,0.00,1,,230
2012-10-6,64,53,42,57,46,39,100,84,58,30.13,30.03,29.90,10,9,1,13,3,20,0.09,3,Rain,257
2012-10-7,50,42,35,45,42,36,100,94,76,30.20,30.11,30.06,10,9,0,12,1,21,0.03,3,Fog-Rain,276
2012-10-8,42,37,32,43,39,32,100,99,87,30.27,30.22,30.18,10,6,0,0,0,,0.14,5,Fog-Rain,-1
2012-10-9,53,47,41,45,42,39,100,87,62,30.21,30.14,30.05,10,10,3,5,0,,0.00,6,,235
2012-10-10,57,48,39,46,42,32,100,81,57,30.21,30.04,29.98,10,9,1,17,5,24,0.00,5,,256
2012-10-11,57,44,32,36,31,27,100,64,33,30.33,30.25,30.18,10,10,1,8,1,,0.00,0,,250
2012-10-12,53,44,35,39,36,34,100,76,51,30.40,30.30,30.21,10,8,2,12,1,16,0.00,0,,359
2012-10-13,69,51,33,45,39,34,100,66,35,30.39,30.30,30.17,10,10,10,12,2,17,0.00,0,,201
2012-10-14,75,64,53,55,49,43,82,60,44,30.16,30.08,29.90,10,10,10,15,3,25,0.00,2,,208
2012-10-15,62,55,48,57,46,41,100,76,52,29.95,29.87,29.81,10,10,9,18,11,28,0.00,6,Rain,260
2012-10-16,57,50,42,45,40,36,100,74,47,30.03,29.95,29.92,10,10,10,9,3,,0.00,4,,258
2012-10-17,71,55,39,45,40,34,93,60,33,29.96,29.89,29.79,10,10,10,12,1,,0.00,0,,177
2012-10-18,69,58,48,54,45,39,100,69,40,29.86,29.77,29.66,10,8,1,21,4,30,0.50,3,Rain,176
2012-10-19,64,54,44,48,40,32,100,65,30,29.80,29.73,29.63,10,10,2,17,4,26,0.00,2,Rain,222
2012-10-20,51,48,44,46,42,37,100,82,58,30.00,29.86,29.78,10,10,7,16,6,24,0.03,6,Rain,225
2012-10-21,55,47,39,45,40,37,100,82,51,30.19,30.12,30.01,10,10,7,8,1,,0.00,4,,243
2012-10-22,71,54,37,48,44,36,93,66,41,30.24,30.19,30.15,10,10,9,7,1,,0.00,0,,228
2012-10-23,73,64,55,54,50,48,77,61,41,30.17,30.14,30.11,10,10,10,15,2,18,0.00,1,,238
2012-10-24,75,65,55,54,50,46,88,63,38,30.22,30.16,30.12,10,10,8,8,1,,0.00,1,,219
2012-10-25,82,66,51,50,45,39,82,52,23,30.17,30.12,30.06,10,9,0,12,2,20,0.00,0,,180
2012-10-26,75,66,57,54,50,45,77,56,41,30.15,30.07,30.00,10,10,8,9,2,,0.00,1,,279
2012-10-27,62,53,44,54,50,45,100,93,68,29.99,29.97,29.94,10,6,0,12,3,,0.00,6,Fog-Rain,340
2012-10-28,44,42,39,45,43,39,100,100,100,29.97,29.88,29.82,9,3,0,10,7,,0.30,8,Fog-Rain,357
2012-10-29,39,36,32,39,37,32,100,100,100,29.82,29.64,29.26,7,3,1,15,6,25,4.26,8,Rain-Snow,300
2012-10-30,33,32,32,34,32,32,100,100,100,29.49,29.29,29.17,3,1,0,20,14,30,8.98,8,Snow,225
2012-10-31,35,34,32,36,34,32,100,100,100,29.75,29.62,29.49,10,3,1,15,10,21,0.45,8,Rain-Snow,224